Time;durP1;ratioP1;P1;durP2;ratioP2;P2;SDS_P1;SDS_P2;PMS_P1;PMS_P2;Temp;Humidity;BMP_temperature;BMP_pressure;BME280_temperature;BME280_humidity;BME280_pressure;Samples;Min_cycle;Max_cycle;Signal;HPM_P1;HPM_P2
2022/01/21 00:00:07;;;;;;;1.38;0.80;;;5.00;99.90;;;;;;5026459;28;20649;-52
2022/01/21 00:02:38;;;;;;;2.55;1.42;;;4.90;99.90;;;;;;5024045;28;20204;-51
2022/01/21 00:05:07;;;;;;;2.92;1.20;;;5.00;99.90;;;;;;5019241;28;20229;-52
2022/01/21 00:07:35;;;;;;;3.65;2.10;;;4.90;99.90;;;;;;5007596;28;20217;-51
2022/01/21 00:10:05;;;;;;;2.10;1.55;;;4.90;99.90;;;;;;5005716;28;20229;-51
2022/01/21 00:12:36;;;;;;;2.65;1.65;;;4.90;99.90;;;;;;5015440;28;20244;-51
2022/01/21 00:15:06;;;;;;;4.18;1.40;;;4.90;99.90;;;;;;5026403;28;20244;-52
2022/01/21 00:17:34;;;;;;;3.03;1.20;;;4.90;99.90;;;;;;5025353;28;20615;-53
2022/01/21 00:31:12;;;;;;;2.10;1.10;;;4.90;99.90;;;;;;5005609;28;20217;-52
2022/01/21 00:33:40;;;;;;;3.50;1.80;;;4.90;99.90;;;;;;5025585;28;20196;-52
2022/01/21 00:36:09;;;;;;;1.45;1.23;;;4.90;99.90;;;;;;4996590;28;20217;-51
2022/01/21 00:38:40;;;;;;;2.80;1.42;;;4.90;99.90;;;;;;5007293;28;20213;-52
2022/01/21 00:41:09;;;;;;;3.33;1.45;;;4.90;99.90;;;;;;4993140;28;20292;-51
2022/01/21 00:43:44;;;;;;;4.53;1.42;;;4.90;99.90;;;;;;5026594;28;20615;-53
2022/01/21 00:46:13;;;;;;;3.50;2.15;;;4.90;99.90;;;;;;4996832;28;20298;-52
2022/01/21 00:48:41;;;;;;;2.20;1.20;;;4.90;99.90;;;;;;5023453;28;20221;-51
2022/01/21 00:51:09;;;;;;;1.60;1.13;;;4.90;99.90;;;;;;5025470;28;20228;-52
2022/01/21 00:53:37;;;;;;;2.55;1.10;;;4.90;99.90;;;;;;5008825;28;20243;-52
2022/01/21 00:56:06;;;;;;;2.55;1.45;;;4.90;99.90;;;;;;5025942;28;20640;-52
2022/01/21 00:58:35;;;;;;;3.53;3.00;;;4.90;99.90;;;;;;5025287;28;20708;-51
2022/01/21 01:01:05;;;;;;;2.75;1.30;;;4.90;99.90;;;;;;5018453;28;20701;-52
2022/01/21 01:03:33;;;;;;;3.28;1.85;;;4.90;99.90;;;;;;5026002;28;20269;-53
2022/01/21 01:06:01;;;;;;;1.85;1.25;;;4.90;99.90;;;;;;5025672;28;20618;-51
2022/01/21 01:08:29;;;;;;;3.83;1.60;;;4.90;99.90;;;;;;5008520;28;20304;-52
2022/01/21 01:21:58;;;;;;;2.83;1.38;;;4.90;99.90;;;;;;5009026;28;20283;-52
2022/01/21 01:29:59;;;;;;;6.45;1.63;;;4.80;99.90;;;;;;4991256;28;20252;-52
2022/01/21 01:32:30;;;;;;;8.30;1.77;;;4.80;99.90;;;;;;5012667;28;20197;-52
2022/01/21 01:34:58;;;;;;;3.80;1.10;;;4.80;99.90;;;;;;4991287;28;20657;-52
2022/01/21 01:37:37;;;;;;;4.18;1.52;;;4.80;99.90;;;;;;5009716;28;20749;-52
2022/01/21 01:40:18;;;;;;;3.45;2.13;;;4.80;99.90;;;;;;5008713;28;20225;-52
2022/01/21 01:51:04;;;;;;;2.35;1.55;;;4.80;99.90;;;;;;5027110;28;20593;-52
2022/01/21 01:53:36;;;;;;;2.45;1.30;;;4.80;99.90;;;;;;5029117;28;20204;-52
2022/01/21 01:56:08;;;;;;;3.92;1.45;;;4.80;99.90;;;;;;5027162;28;20268;-51
2022/01/21 01:58:37;;;;;;;2.30;1.10;;;4.80;99.90;;;;;;4996909;28;20325;-51
2022/01/21 02:01:06;;;;;;;3.75;1.20;;;4.80;99.90;;;;;;5024755;28;20421;-51
2022/01/21 02:03:37;;;;;;;4.45;1.70;;;4.80;99.90;;;;;;5003055;28;20194;-52
2022/01/21 02:06:06;;;;;;;4.13;1.50;;;4.80;99.90;;;;;;4991169;28;20263;-53
2022/01/21 02:08:35;;;;;;;4.05;1.20;;;4.80;99.90;;;;;;4991286;28;20692;-53
2022/01/21 02:11:04;;;;;;;2.75;1.20;;;4.80;99.90;;;;;;4992053;28;20214;-52
2022/01/21 02:13:38;;;;;;;3.75;1.40;;;4.80;99.90;;;;;;5014666;28;20201;-51
2022/01/21 02:16:13;;;;;;;2.17;1.10;;;4.80;99.90;;;;;;5007914;28;20742;-52
2022/01/21 02:21:34;;;;;;;2.25;1.20;;;4.80;99.90;;;;;;5003471;28;20235;-52
2022/01/21 02:24:06;;;;;;;2.67;1.40;;;4.80;99.90;;;;;;5029736;28;20220;-51
2022/01/21 02:26:35;;;;;;;2.35;1.30;;;4.80;99.90;;;;;;5007624;28;20579;-52
2022/01/21 02:29:06;;;;;;;3.08;1.85;;;4.80;99.90;;;;;;5000272;28;20213;-53
2022/01/21 02:31:35;;;;;;;3.50;1.40;;;4.80;99.90;;;;;;4991943;28;20308;-52
2022/01/21 02:34:05;;;;;;;2.30;1.30;;;4.80;99.90;;;;;;5009208;28;20767;-51
2022/01/21 02:36:35;;;;;;;2.53;1.20;;;4.80;99.90;;;;;;5009979;28;20217;-52
2022/01/21 02:39:04;;;;;;;4.15;1.67;;;4.80;99.90;;;;;;5000088;28;20225;-52
2022/01/21 02:41:32;;;;;;;1.10;1.00;;;4.80;99.90;;;;;;5021173;28;20585;-52
2022/01/21 02:44:01;;;;;;;3.45;1.48;;;4.80;99.90;;;;;;5009669;28;20569;-51
2022/01/21 02:46:35;;;;;;;1.40;1.20;;;4.80;99.90;;;;;;5003059;28;20308;-52
2022/01/21 02:49:04;;;;;;;2.35;1.35;;;4.80;99.90;;;;;;5009670;28;20303;-53
2022/01/21 02:51:32;;;;;;;2.45;1.42;;;4.80;99.90;;;;;;5009898;28;20304;-52
2022/01/21 02:54:04;;;;;;;3.85;1.35;;;4.80;99.90;;;;;;4992245;28;20749;-52
2022/01/21 02:56:34;;;;;;;2.13;0.88;;;4.80;99.90;;;;;;5008018;28;20272;-52
2022/01/21 02:59:03;;;;;;;2.25;1.00;;;4.70;99.90;;;;;;4989918;28;20772;-52
2022/01/21 03:01:34;;;;;;;1.55;1.20;;;4.70;99.90;;;;;;4990787;28;20323;-52
2022/01/21 03:04:04;;;;;;;1.55;1.10;;;4.80;99.90;;;;;;4999174;28;20272;-53
2022/01/21 03:06:32;;;;;;;1.75;1.33;;;4.80;99.90;;;;;;5007365;28;20276;-52
2022/01/21 03:09:02;;;;;;;3.40;1.20;;;4.80;99.90;;;;;;4991057;28;20229;-52
2022/01/21 03:11:30;;;;;;;1.85;1.20;;;4.80;99.90;;;;;;5025584;28;20298;-51
2022/01/21 03:13:58;;;;;;;2.63;1.55;;;4.80;99.90;;;;;;5026938;28;20672;-50
2022/01/21 03:16:27;;;;;;;1.60;1.33;;;4.80;99.90;;;;;;5008658;28;20231;-52
2022/01/21 03:18:57;;;;;;;1.42;1.10;;;4.70;99.90;;;;;;4992022;28;20220;-51
2022/01/21 03:21:25;;;;;;;2.20;1.35;;;4.70;99.90;;;;;;4989233;28;20224;-52
2022/01/21 03:23:55;;;;;;;5.75;1.48;;;4.70;99.90;;;;;;4989707;28;20194;-52
2022/01/21 03:26:27;;;;;;;1.60;1.40;;;4.80;99.90;;;;;;4990112;28;20245;-52
2022/01/21 03:28:58;;;;;;;2.08;1.10;;;4.70;99.90;;;;;;5000408;28;20221;-52
2022/01/21 03:31:30;;;;;;;4.75;1.38;;;4.70;99.90;;;;;;5006055;28;20220;-52
2022/01/21 03:33:59;;;;;;;1.50;1.00;;;4.70;99.90;;;;;;4997196;28;20268;-52
2022/01/21 03:36:31;;;;;;;4.43;1.40;;;4.70;99.90;;;;;;4989621;28;20750;-53
2022/01/21 03:38:59;;;;;;;6.13;1.45;;;4.70;99.90;;;;;;5024935;28;20205;-52
2022/01/21 03:41:30;;;;;;;2.35;1.30;;;4.70;99.90;;;;;;5008571;28;20759;-52
2022/01/21 03:43:59;;;;;;;3.00;1.60;;;4.70;99.90;;;;;;4997645;28;20615;-51
2022/01/21 03:46:29;;;;;;;2.15;1.40;;;4.70;99.90;;;;;;4996220;28;20697;-52
2022/01/21 03:48:57;;;;;;;3.53;1.23;;;4.70;99.90;;;;;;4991736;28;20301;-53
2022/01/21 03:51:26;;;;;;;1.42;1.08;;;4.70;99.90;;;;;;4989327;28;20245;-52
2022/01/21 03:53:55;;;;;;;2.95;1.65;;;4.70;99.90;;;;;;5006477;28;20201;-52
2022/01/21 03:56:27;;;;;;;1.45;1.00;;;4.70;99.90;;;;;;5003104;28;20222;-52
2022/01/21 03:58:57;;;;;;;1.60;1.20;;;4.70;99.90;;;;;;4997668;28;20712;-52
2022/01/21 04:01:28;;;;;;;2.20;1.60;;;4.70;99.90;;;;;;5007283;28;20220;-52
2022/01/21 04:03:56;;;;;;;1.30;1.10;;;4.70;99.90;;;;;;5021614;28;20197;-51
2022/01/21 04:06:25;;;;;;;4.38;1.30;;;4.70;99.90;;;;;;5002980;28;20217;-52
2022/01/21 04:08:53;;;;;;;2.28;1.35;;;4.70;99.90;;;;;;5001337;28;20236;-51
2022/01/21 04:11:22;;;;;;;2.30;1.55;;;4.70;99.90;;;;;;4990870;28;20469;-51
2022/01/21 04:13:51;;;;;;;2.30;1.10;;;4.70;99.90;;;;;;4997619;28;20195;-52
2022/01/21 04:16:22;;;;;;;3.10;1.95;;;4.70;99.90;;;;;;4988858;28;20221;-52
2022/01/21 04:18:51;;;;;;;3.33;1.40;;;4.70;99.90;;;;;;5005918;28;20220;-52
2022/01/21 04:21:19;;;;;;;3.22;1.70;;;4.70;99.90;;;;;;5006405;28;20202;-52
2022/01/21 04:23:48;;;;;;;3.30;1.63;;;4.70;99.90;;;;;;4993613;28;20252;-52
2022/01/21 04:26:26;;;;;;;2.80;1.20;;;4.70;99.90;;;;;;4995475;28;20220;-53
2022/01/21 04:29:05;;;;;;;3.97;1.15;;;4.70;99.90;;;;;;5008888;28;20228;-52
2022/01/21 04:31:42;;;;;;;2.28;1.60;;;4.70;99.90;;;;;;4995997;28;20319;-52
2022/01/21 04:34:11;;;;;;;2.45;1.30;;;4.70;99.90;;;;;;4992182;28;20247;-51
2022/01/21 04:36:39;;;;;;;2.78;1.38;;;4.60;99.90;;;;;;5026222;28;20271;-51
2022/01/21 04:39:14;;;;;;;1.98;1.27;;;4.70;99.90;;;;;;5009081;28;20572;-52
2022/01/21 04:47:13;;;;;;;4.55;2.10;;;4.70;99.90;;;;;;5007242;28;20220;-52
2022/01/21 04:47:19;;;;;;;3.22;1.65;;;4.60;99.90;;;;;;5008277;28;20570;-52
2022/01/21 04:49:51;;;;;;;2.85;1.58;;;4.60;99.90;;;;;;4993122;28;20384;-53
2022/01/21 04:52:22;;;;;;;3.22;1.20;;;4.60;99.90;;;;;;4997778;28;20212;-51
2022/01/21 04:55:14;;;;;;;2.55;1.00;;;4.60;99.90;;;;;;4992585;28;20312;-53
2022/01/21 04:57:43;;;;;;;2.50;1.13;;;4.60;99.90;;;;;;5012897;28;20207;-52
2022/01/21 05:00:11;;;;;;;2.70;1.75;;;4.70;99.90;;;;;;4996570;28;20225;-51
2022/01/21 05:02:43;;;;;;;2.70;1.38;;;4.60;99.90;;;;;;5009187;28;20204;-51
2022/01/21 05:05:15;;;;;;;4.32;1.60;;;4.60;99.90;;;;;;4993295;28;20221;-52
2022/01/21 05:07:43;;;;;;;1.95;1.00;;;4.60;99.90;;;;;;4993377;28;20194;-52
2022/01/21 05:10:11;;;;;;;1.80;1.35;;;4.60;99.90;;;;;;4994150;28;20230;-51
2022/01/21 05:12:40;;;;;;;3.20;1.77;;;4.60;99.90;;;;;;5006378;28;20223;-51
2022/01/21 05:15:17;;;;;;;5.45;1.98;;;4.60;99.90;;;;;;4992483;28;20244;-51
2022/01/21 05:17:49;;;;;;;2.38;1.40;;;4.60;99.90;;;;;;4996792;28;20186;-52
2022/01/21 05:20:28;;;;;;;1.75;1.35;;;4.60;99.90;;;;;;4992595;28;20225;-52
2022/01/21 05:23:08;;;;;;;5.35;1.63;;;4.60;99.90;;;;;;5010601;28;20611;-52
2022/01/21 05:25:36;;;;;;;4.60;1.60;;;4.60;99.90;;;;;;4992218;28;20653;-51
2022/01/21 05:28:05;;;;;;;1.52;1.20;;;4.60;99.90;;;;;;5024926;28;20359;-53
2022/01/21 05:30:53;;;;;;;2.72;1.80;;;4.60;99.90;;;;;;5010088;28;20501;-52
2022/01/21 05:33:41;;;;;;;2.65;1.13;;;4.60;99.90;;;;;;5008520;28;20267;-52
2022/01/21 05:36:40;;;;;;;7.57;1.70;;;4.60;99.90;;;;;;4993029;28;20224;-52
2022/01/21 05:39:15;;;;;;;3.00;1.40;;;4.60;99.90;;;;;;4992774;28;20209;-52
2022/01/21 05:41:55;;;;;;;2.00;1.10;;;4.60;99.90;;;;;;4995374;28;20275;-52
2022/01/21 05:47:52;;;;;;;3.15;1.45;;;4.60;99.90;;;;;;5008050;28;20198;-52
2022/01/21 05:50:38;;;;;;;2.50;1.20;;;4.60;99.90;;;;;;4999425;28;20468;-51
2022/01/21 05:53:33;;;;;;;1.83;1.20;;;4.60;99.90;;;;;;5012560;28;20181;-52
2022/01/21 05:56:15;;;;;;;2.78;1.35;;;4.60;99.90;;;;;;4998920;28;20230;-51
2022/01/21 05:59:06;;;;;;;5.97;1.80;;;4.60;99.90;;;;;;5006028;28;20286;-51
2022/01/21 06:01:37;;;;;;;5.60;1.83;;;4.60;99.90;;;;;;5011260;28;20300;-52
2022/01/21 06:04:07;;;;;;;2.97;1.50;;;4.60;99.90;;;;;;5010924;28;20201;-51
2022/01/21 06:06:36;;;;;;;4.53;1.73;;;4.50;99.90;;;;;;4976078;28;20252;-53
2022/01/21 06:09:06;;;;;;;2.60;1.45;;;4.50;99.90;;;;;;5010570;28;20229;-52
2022/01/21 06:11:35;;;;;;;1.90;1.50;;;4.60;99.90;;;;;;4998019;28;20271;-53
2022/01/21 06:14:04;;;;;;;4.90;1.20;;;4.60;99.90;;;;;;5029858;28;20327;-53
2022/01/21 06:16:34;;;;;;;2.15;1.38;;;4.50;99.90;;;;;;4995658;28;20677;-53
2022/01/21 06:19:02;;;;;;;3.42;1.52;;;4.60;99.90;;;;;;5011866;28;20217;-51
2022/01/21 06:21:30;;;;;;;3.83;2.40;;;4.60;99.90;;;;;;5029399;28;20267;-52
2022/01/21 06:24:00;;;;;;;4.85;1.60;;;4.60;99.90;;;;;;5031598;28;20264;-52
2022/01/21 06:26:28;;;;;;;1.92;0.80;;;4.60;99.90;;;;;;5017400;28;20325;-52
2022/01/21 06:28:56;;;;;;;1.85;1.17;;;4.50;99.90;;;;;;5022911;28;20220;-51
2022/01/21 06:31:24;;;;;;;4.03;1.90;;;4.60;99.90;;;;;;5009534;28;20780;-51
2022/01/21 06:33:52;;;;;;;4.45;1.25;;;4.60;99.90;;;;;;5028732;28;20190;-52
2022/01/21 06:36:20;;;;;;;2.00;0.95;;;4.50;99.90;;;;;;5016088;28;20632;-52
2022/01/21 06:38:48;;;;;;;2.80;1.40;;;4.50;99.90;;;;;;5009898;28;20221;-51
2022/01/21 06:41:18;;;;;;;1.63;0.98;;;4.50;99.90;;;;;;5014871;28;20221;-51
2022/01/21 06:43:46;;;;;;;1.85;1.45;;;4.60;99.90;;;;;;5022309;28;20668;-51
2022/01/21 06:46:15;;;;;;;2.65;1.73;;;4.50;99.90;;;;;;5008803;28;20222;-53
2022/01/21 06:48:43;;;;;;;1.50;1.30;;;4.50;99.90;;;;;;5026422;28;20223;-53
2022/01/21 06:51:11;;;;;;;2.90;1.05;;;4.50;99.90;;;;;;5029487;28;20221;-52
2022/01/21 06:53:39;;;;;;;2.95;1.17;;;4.50;99.90;;;;;;5011744;28;20729;-51
2022/01/21 06:56:08;;;;;;;1.35;1.00;;;4.50;99.90;;;;;;5025738;28;20231;-52
2022/01/21 06:58:37;;;;;;;1.88;1.20;;;4.50;99.90;;;;;;5009950;28;20210;-51
2022/01/21 07:01:05;;;;;;;3.63;1.67;;;4.50;99.90;;;;;;5027091;28;20224;-52
2022/01/21 07:03:34;;;;;;;2.95;1.50;;;4.50;99.90;;;;;;5022890;28;20186;-51
2022/01/21 07:06:02;;;;;;;1.65;1.00;;;4.50;99.90;;;;;;5007740;28;20574;-52
2022/01/21 07:08:33;;;;;;;2.33;1.05;;;4.50;99.90;;;;;;5009499;28;20214;-52
2022/01/21 07:11:01;;;;;;;5.82;1.52;;;4.50;99.90;;;;;;5011366;28;20718;-52
2022/01/21 07:13:30;;;;;;;3.47;1.63;;;4.50;99.90;;;;;;5029527;28;20668;-53
2022/01/21 07:15:59;;;;;;;2.70;1.42;;;4.50;99.90;;;;;;5013454;28;20228;-51
2022/01/21 07:18:28;;;;;;;2.20;1.38;;;4.50;99.90;;;;;;5014356;28;20224;-53
2022/01/21 07:20:56;;;;;;;2.95;1.30;;;4.50;99.90;;;;;;5010182;28;20236;-52
2022/01/21 07:23:24;;;;;;;1.65;1.45;;;4.50;99.90;;;;;;5021480;28;20697;-52
2022/01/21 07:25:53;;;;;;;3.92;1.77;;;4.50;99.90;;;;;;5014583;28;20221;-52
2022/01/21 07:28:21;;;;;;;4.40;1.98;;;4.50;99.90;;;;;;5018927;28;20221;-51
2022/01/21 07:30:50;;;;;;;2.53;1.30;;;4.50;99.90;;;;;;5013755;28;20217;-52
2022/01/21 07:33:21;;;;;;;2.40;1.33;;;4.50;99.90;;;;;;5018307;28;20224;-51
2022/01/21 07:35:49;;;;;;;3.20;1.60;;;4.50;99.90;;;;;;5016115;28;20224;-51
2022/01/21 07:38:18;;;;;;;7.93;2.35;;;4.50;99.90;;;;;;5010472;28;20205;-52
2022/01/21 07:40:46;;;;;;;3.13;1.40;;;4.50;99.90;;;;;;5013161;28;20217;-52
2022/01/21 07:43:15;;;;;;;2.88;1.35;;;4.50;99.90;;;;;;5011346;28;20215;-52
2022/01/21 07:45:43;;;;;;;1.70;1.50;;;4.50;99.90;;;;;;5028312;28;20224;-51
2022/01/21 07:48:12;;;;;;;7.53;1.45;;;4.50;99.90;;;;;;5023870;28;20233;-52
2022/01/21 07:50:41;;;;;;;2.30;2.10;;;4.50;99.90;;;;;;5021901;28;20225;-51
2022/01/21 07:53:10;;;;;;;2.70;1.75;;;4.50;99.90;;;;;;5026241;28;20298;-51
2022/01/21 07:55:38;;;;;;;1.88;1.25;;;4.50;99.90;;;;;;5023674;28;20236;-52
2022/01/21 07:58:07;;;;;;;3.30;1.10;;;4.50;99.90;;;;;;5024363;28;20251;-51
2022/01/21 08:00:35;;;;;;;2.83;1.25;;;4.50;99.90;;;;;;5017830;28;20308;-51
2022/01/21 08:03:04;;;;;;;2.00;1.23;;;4.50;99.90;;;;;;5021833;28;20197;-52
2022/01/21 08:05:34;;;;;;;2.40;1.02;;;4.50;99.90;;;;;;5026143;28;20231;-52
2022/01/21 08:08:05;;;;;;;2.35;1.42;;;4.50;99.90;;;;;;5016416;28;20669;-52
2022/01/21 08:10:33;;;;;;;2.45;1.35;;;4.50;99.90;;;;;;5014673;28;20320;-52
2022/01/21 08:13:02;;;;;;;2.75;1.50;;;4.50;99.90;;;;;;5006503;28;20215;-51
2022/01/21 08:15:31;;;;;;;1.90;1.50;;;4.50;99.90;;;;;;5019647;28;20883;-52
2022/01/21 08:18:01;;;;;;;1.60;1.50;;;4.40;99.90;;;;;;5010893;28;20219;-50
2022/01/21 08:20:30;;;;;;;4.45;2.45;;;4.50;99.90;;;;;;5016905;28;20517;-52
2022/01/21 08:22:59;;;;;;;2.22;1.83;;;4.40;99.90;;;;;;5005874;28;20182;-53
2022/01/21 08:25:29;;;;;;;2.45;1.63;;;4.50;99.90;;;;;;5011552;28;20216;-52
2022/01/21 08:27:58;;;;;;;2.95;1.60;;;4.40;99.90;;;;;;5026823;28;20212;-52
2022/01/21 08:30:26;;;;;;;3.85;1.77;;;4.40;99.90;;;;;;5026331;28;20232;-52
2022/01/21 08:32:55;;;;;;;5.35;2.15;;;4.40;99.90;;;;;;5026192;28;20281;-52
2022/01/21 08:35:24;;;;;;;4.13;1.80;;;4.40;99.90;;;;;;5025836;28;20228;-52
2022/01/21 08:37:53;;;;;;;4.55;2.58;;;4.50;99.90;;;;;;5026786;28;20197;-52
2022/01/21 08:40:22;;;;;;;3.25;1.73;;;4.40;99.90;;;;;;5026032;28;20671;-52
2022/01/21 08:42:53;;;;;;;4.50;1.60;;;4.40;99.90;;;;;;5026155;28;20338;-52
2022/01/21 08:45:22;;;;;;;5.47;1.83;;;4.50;99.90;;;;;;5008048;28;20229;-51
2022/01/21 08:47:51;;;;;;;3.75;1.85;;;4.40;99.90;;;;;;5018475;28;20196;-52
2022/01/21 08:50:21;;;;;;;2.65;1.60;;;4.40;99.90;;;;;;5025019;28;20229;-53
2022/01/21 08:52:55;;;;;;;4.82;2.28;;;4.40;99.90;;;;;;5026722;28;20216;-53
2022/01/21 08:55:24;;;;;;;4.72;2.10;;;4.40;99.90;;;;;;5025326;28;20307;-52
2022/01/21 08:57:55;;;;;;;4.20;1.88;;;4.40;99.90;;;;;;5026635;28;20623;-52
2022/01/21 09:00:24;;;;;;;2.65;1.35;;;4.40;99.90;;;;;;5026044;28;20231;-51
2022/01/21 09:02:53;;;;;;;3.85;2.15;;;4.40;99.90;;;;;;5022038;28;20643;-52
2022/01/21 09:05:21;;;;;;;2.67;1.50;;;4.40;99.90;;;;;;5016479;28;20245;-51
2022/01/21 09:07:49;;;;;;;2.92;2.10;;;4.40;99.90;;;;;;5019392;28;20225;-51
2022/01/21 09:10:18;;;;;;;8.77;2.55;;;4.40;99.90;;;;;;5019753;28;20221;-51
2022/01/21 09:12:46;;;;;;;2.05;1.20;;;4.40;99.90;;;;;;5022478;28;20185;-50
2022/01/21 09:15:23;;;;;;;3.30;1.38;;;4.40;99.90;;;;;;4998564;28;20304;-51
2022/01/21 09:17:51;;;;;;;3.20;1.77;;;4.40;99.90;;;;;;5020486;28;20526;-51
2022/01/21 09:20:19;;;;;;;4.28;1.80;;;4.40;99.90;;;;;;5013484;28;20221;-51
2022/01/21 09:22:47;;;;;;;4.03;1.50;;;4.40;99.90;;;;;;5021089;28;20215;-52
2022/01/21 09:25:16;;;;;;;2.22;1.67;;;4.40;99.90;;;;;;5005641;28;20588;-52
2022/01/21 09:27:45;;;;;;;2.10;1.40;;;4.50;99.90;;;;;;5005786;28;20545;-51
2022/01/21 09:30:13;;;;;;;3.45;1.73;;;4.40;99.90;;;;;;5024853;28;20215;-51
2022/01/21 09:32:43;;;;;;;6.30;1.63;;;4.50;99.90;;;;;;5025811;28;20232;-52
2022/01/21 09:35:11;;;;;;;4.57;2.10;;;4.40;99.90;;;;;;5017102;28;20235;-52
2022/01/21 09:37:40;;;;;;;2.75;1.63;;;4.50;99.90;;;;;;5014013;28;20189;-52
2022/01/21 09:40:10;;;;;;;26.10;24.48;;;4.50;99.90;;;;;;5011649;28;20220;-51
2022/01/21 09:42:38;;;;;;;9.43;8.80;;;4.50;99.90;;;;;;5003809;28;20200;-51
2022/01/21 09:45:13;;;;;;;9.50;8.82;;;4.50;99.90;;;;;;5029030;28;20469;-51
2022/01/21 09:47:48;;;;;;;9.70;8.45;;;4.40;99.90;;;;;;5028219;28;20193;-51
2022/01/21 09:50:20;;;;;;;9.00;8.30;;;4.50;99.90;;;;;;5029451;28;20294;-52
2022/01/21 09:52:50;;;;;;;9.07;7.70;;;4.50;99.90;;;;;;5012049;28;20216;-51
2022/01/21 09:55:22;;;;;;;8.75;8.05;;;4.50;99.90;;;;;;5028633;28;20225;-52
2022/01/21 09:57:52;;;;;;;7.63;7.10;;;4.50;99.90;;;;;;5028925;28;20240;-52
2022/01/21 10:00:23;;;;;;;8.13;7.38;;;4.40;99.90;;;;;;5029122;28;20271;-52
2022/01/21 10:02:54;;;;;;;8.80;8.07;;;4.50;99.90;;;;;;5028664;28;20247;-52
2022/01/21 10:05:24;;;;;;;7.82;7.20;;;4.50;99.90;;;;;;5028816;28;20294;-51
2022/01/21 10:07:52;;;;;;;8.27;7.57;;;4.40;99.90;;;;;;5029069;28;20229;-51
2022/01/21 10:10:20;;;;;;;6.57;5.97;;;4.50;99.90;;;;;;5027996;28;20209;-51
2022/01/21 10:13:01;;;;;;;7.55;6.93;;;4.40;99.90;;;;;;5029579;28;20193;-52
2022/01/21 10:15:31;;;;;;;8.18;6.57;;;4.40;99.90;;;;;;5028663;28;20595;-51
2022/01/21 10:18:04;;;;;;;7.82;7.00;;;4.40;99.90;;;;;;5028743;28;20196;-51
2022/01/21 10:20:39;;;;;;;6.57;5.97;;;4.50;99.90;;;;;;5031028;28;20660;-52
2022/01/21 10:23:10;;;;;;;7.25;6.65;;;4.50;99.90;;;;;;5029567;28;20189;-51
2022/01/21 10:25:40;;;;;;;8.43;7.70;;;4.40;99.90;;;;;;5027753;28;20231;-52
2022/01/21 10:28:11;;;;;;;6.80;6.20;;;4.40;99.90;;;;;;5011644;28;20679;-51
2022/01/21 10:30:40;;;;;;;9.15;6.47;;;4.50;99.90;;;;;;5028711;28;20251;-51
2022/01/21 10:33:21;;;;;;;7.28;6.68;;;4.50;99.90;;;;;;5028298;28;20504;-52
2022/01/21 10:35:51;;;;;;;6.22;5.63;;;4.40;99.90;;;;;;5028521;28;20275;-51
2022/01/21 10:38:29;;;;;;;6.60;5.78;;;4.50;99.90;;;;;;5028955;28;20558;-51
2022/01/21 10:41:04;;;;;;;6.68;6.07;;;4.40;99.90;;;;;;5008994;28;20224;-51
2022/01/21 10:43:32;;;;;;;7.47;6.88;;;4.50;99.90;;;;;;5029273;28;20193;-51
2022/01/21 10:46:03;;;;;;;6.47;5.88;;;4.50;99.90;;;;;;5010215;28;20728;-51
2022/01/21 10:48:56;;;;;;;6.82;6.22;;;4.50;99.90;;;;;;5028180;28;20221;-52
2022/01/21 10:51:31;;;;;;;6.72;6.13;;;4.40;99.90;;;;;;5028539;28;20232;-51
2022/01/21 10:54:11;;;;;;;6.03;5.53;;;4.50;99.90;;;;;;5028817;28;20232;-51
2022/01/21 10:56:40;;;;;;;6.63;5.97;;;4.50;99.90;;;;;;5027547;28;20217;-51
2022/01/21 10:59:09;;;;;;;6.13;5.53;;;4.50;99.90;;;;;;5025674;28;20216;-50
2022/01/21 11:01:38;;;;;;;7.45;6.70;;;4.40;99.90;;;;;;5012821;28;20230;-50
2022/01/21 11:04:11;;;;;;;7.40;5.70;;;4.50;99.90;;;;;;5020492;28;20656;-51
2022/01/21 11:06:52;;;;;;;7.68;6.05;;;4.50;99.90;;;;;;5008324;28;20222;-51
2022/01/21 11:09:22;;;;;;;8.70;6.68;;;4.50;99.90;;;;;;4990528;28;20510;-50
2022/01/21 11:12:07;;;;;;;9.48;6.28;;;4.60;99.90;;;;;;4997207;28;20216;-52
2022/01/21 11:14:35;;;;;;;6.25;5.40;;;4.60;99.90;;;;;;5025611;28;20201;-51
2022/01/21 11:17:08;;;;;;;6.15;5.65;;;4.60;99.90;;;;;;5009565;28;20193;-51
2022/01/21 11:20:06;;;;;;;7.70;5.47;;;4.60;99.90;;;;;;5006704;28;20248;-50
2022/01/21 11:22:52;;;;;;;5.65;5.10;;;4.60;99.90;;;;;;5008296;28;20340;-50
2022/01/21 11:25:41;;;;;;;5.55;5.05;;;4.60;99.90;;;;;;5007930;28;20241;-51
2022/01/21 11:28:09;;;;;;;8.55;4.90;;;4.60;99.90;;;;;;5008228;28;20598;-52
2022/01/21 11:30:38;;;;;;;5.03;4.63;;;4.60;99.90;;;;;;5015948;28;20252;-52
2022/01/21 11:33:06;;;;;;;5.75;5.35;;;4.70;99.90;;;;;;5027133;28;20216;-51
2022/01/21 11:35:37;;;;;;;5.85;5.05;;;4.70;99.90;;;;;;4993825;28;20724;-52
2022/01/21 11:38:07;;;;;;;5.28;4.55;;;4.60;99.90;;;;;;5009841;28;20200;-51
2022/01/21 11:40:36;;;;;;;5.57;5.10;;;4.70;99.90;;;;;;5025421;28;20296;-50
2022/01/21 11:43:06;;;;;;;5.00;4.60;;;4.70;99.90;;;;;;5028049;28;20645;-51
2022/01/21 11:46:17;;;;;;;5.47;4.97;;;4.70;99.90;;;;;;5012588;28;20213;-52
2022/01/21 11:48:53;;;;;;;7.85;5.38;;;4.70;99.90;;;;;;5027291;28;20639;-52
2022/01/21 11:51:27;;;;;;;6.25;4.57;;;4.70;99.90;;;;;;5027229;28;20216;-50
2022/01/21 11:53:57;;;;;;;3.80;3.60;;;4.70;99.90;;;;;;5023653;28;20296;-50
2022/01/21 11:56:43;;;;;;;4.93;4.47;;;4.70;99.90;;;;;;5019705;28;20228;-50
2022/01/21 11:59:19;;;;;;;6.40;4.10;;;4.70;99.90;;;;;;5027591;28;20287;-51
2022/01/21 12:01:47;;;;;;;4.63;4.22;;;4.70;99.90;;;;;;5013390;28;20304;-51
2022/01/21 12:04:43;;;;;;;4.28;3.97;;;4.70;99.90;;;;;;5019715;28;20556;-50
2022/01/21 12:07:45;;;;;;;5.30;4.80;;;4.70;99.90;;;;;;5014916;28;20225;-50
2022/01/21 12:10:15;;;;;;;4.25;3.80;;;4.70;99.90;;;;;;5026670;28;20222;-52
2022/01/21 12:13:07;;;;;;;6.07;4.47;;;4.70;99.90;;;;;;4993199;28;20194;-51
2022/01/21 12:19:22;;;;;;;6.15;4.50;;;4.70;99.90;;;;;;5012867;28;20218;-51
2022/01/21 12:21:53;;;;;;;5.70;4.53;;;4.70;99.90;;;;;;5007204;28;20229;-52
2022/01/21 12:24:55;;;;;;;8.10;5.18;;;4.70;99.90;;;;;;5006641;28;20204;-51
2022/01/21 12:27:26;;;;;;;4.38;3.75;;;4.70;99.90;;;;;;5009452;28;20196;-50
2022/01/21 12:30:28;;;;;;;5.07;4.68;;;4.70;99.90;;;;;;5006613;28;20322;-52
2022/01/21 12:33:09;;;;;;;5.28;4.78;;;4.70;99.90;;;;;;4998148;28;20239;-52
2022/01/21 12:35:57;;;;;;;5.65;4.82;;;4.70;99.90;;;;;;4988470;28;20629;-51
2022/01/21 12:41:34;;;;;;;4.18;3.78;;;4.70;99.90;;;;;;5013113;28;20520;-50
2022/01/21 12:44:05;;;;;;;4.63;4.22;;;4.70;99.90;;;;;;5009173;28;20438;-54
2022/01/21 12:46:36;;;;;;;4.90;4.38;;;4.70;99.90;;;;;;5014137;28;20236;-49
2022/01/21 12:49:46;;;;;;;5.22;4.72;;;4.70;99.90;;;;;;5008859;28;20221;-51
2022/01/21 12:52:46;;;;;;;4.45;4.13;;;4.70;99.90;;;;;;5007776;28;20612;-52
2022/01/21 12:58:11;;;;;;;7.20;4.60;;;4.70;99.90;;;;;;5028328;28;20686;-51
2022/01/21 13:00:39;;;;;;;5.63;5.15;;;4.70;99.90;;;;;;5026447;28;20225;-51
2022/01/21 13:03:16;;;;;;;6.28;4.88;;;4.70;99.90;;;;;;5026664;28;20231;-51
2022/01/21 13:05:48;;;;;;;5.75;4.95;;;4.70;99.90;;;;;;5029998;28;20635;-52
2022/01/21 13:08:31;;;;;;;5.22;4.50;;;4.60;99.90;;;;;;5013362;28;20237;-52
2022/01/21 13:11:11;;;;;;;4.57;4.15;;;4.70;99.90;;;;;;5029678;28;20225;-52
2022/01/21 13:13:49;;;;;;;5.22;4.20;;;4.60;99.90;;;;;;5013508;28;20292;-51
2022/01/21 13:16:26;;;;;;;6.80;4.85;;;4.60;99.90;;;;;;5030438;28;20650;-51
2022/01/21 13:19:02;;;;;;;4.30;3.60;;;4.60;99.90;;;;;;5011206;28;20221;-52
2022/01/21 13:21:34;;;;;;;5.10;4.10;;;4.60;99.90;;;;;;5010693;28;20599;-51
2022/01/21 13:24:15;;;;;;;4.20;3.80;;;4.60;99.90;;;;;;5010924;28;20198;-52
2022/01/21 13:26:44;;;;;;;5.95;4.28;;;4.60;99.90;;;;;;5024882;28;20718;-51
2022/01/21 13:29:14;;;;;;;4.00;3.70;;;4.60;99.90;;;;;;5010489;28;20316;-51
2022/01/21 13:31:53;;;;;;;4.10;3.80;;;4.60;99.90;;;;;;5012958;28;20221;-50
2022/01/21 13:34:25;;;;;;;6.35;4.72;;;4.60;99.90;;;;;;5030768;28;20247;-51
2022/01/21 13:36:56;;;;;;;6.30;4.90;;;4.60;99.90;;;;;;5030820;28;20232;-52
2022/01/21 13:39:31;;;;;;;5.57;4.40;;;4.60;99.90;;;;;;5012680;28;20259;-51
2022/01/21 13:42:03;;;;;;;3.75;3.47;;;4.60;99.90;;;;;;5030217;28;20610;-52
2022/01/21 13:44:41;;;;;;;4.72;4.05;;;4.60;99.90;;;;;;5029814;28;20245;-50
2022/01/21 13:47:32;;;;;;;4.10;3.72;;;4.60;99.90;;;;;;5029987;28;20201;-51
2022/01/21 13:50:07;;;;;;;3.83;3.53;;;4.60;99.90;;;;;;5030022;28;20223;-52
2022/01/21 13:52:42;;;;;;;6.03;4.38;;;4.60;99.90;;;;;;5028245;28;20240;-50
2022/01/21 13:55:29;;;;;;;5.22;3.58;;;4.60;99.90;;;;;;5029710;28;20772;-51
2022/01/21 13:57:59;;;;;;;4.13;3.75;;;4.60;99.90;;;;;;5010754;28;20197;-50
2022/01/21 14:00:32;;;;;;;7.95;4.40;;;4.60;99.90;;;;;;5010305;28;20228;-51
2022/01/21 14:03:17;;;;;;;4.75;3.70;;;4.60;99.90;;;;;;5002636;28;20256;-50
2022/01/21 14:05:48;;;;;;;3.60;3.28;;;4.60;99.90;;;;;;5009745;28;20708;-51
2022/01/21 14:08:19;;;;;;;3.83;3.53;;;4.60;99.90;;;;;;5010746;28;20245;-51
2022/01/21 14:10:47;;;;;;;7.18;4.20;;;4.60;99.90;;;;;;5012504;28;20222;-51
2022/01/21 14:13:16;;;;;;;4.65;3.78;;;4.60;99.90;;;;;;5010676;28;20565;-51
2022/01/21 14:15:46;;;;;;;5.25;4.85;;;4.60;99.90;;;;;;4991657;28;20252;-51
2022/01/21 14:18:15;;;;;;;4.82;3.70;;;4.60;99.90;;;;;;5025861;28;20579;-50